Time;durP1;ratioP1;P1;durP2;ratioP2;P2;SDS_P1;SDS_P2;PMS_P1;PMS_P2;Temp;Humidity;BMP_temperature;BMP_pressure;BME280_temperature;BME280_humidity;BME280_pressure;Samples;Min_cycle;Max_cycle;Signal;HPM_P1;HPM_P2
2021/08/16 00:00:43;;;;;;;6.40;3.60;;;22.70;68.00;;;;;;10339165;28;20037;-57
2021/08/16 00:05:43;;;;;;;6.03;3.85;;;22.70;68.00;;;;;;10339736;28;20026;-57
2021/08/16 00:10:44;;;;;;;6.65;3.33;;;22.70;67.90;;;;;;10365050;28;20034;-57
2021/08/16 00:15:45;;;;;;;7.65;4.53;;;22.70;67.90;;;;;;10338754;28;20491;-57
2021/08/16 00:20:45;;;;;;;6.20;3.67;;;22.70;67.90;;;;;;10339645;28;20034;-57
2021/08/16 00:25:46;;;;;;;8.50;3.85;;;22.70;68.00;;;;;;10338419;28;20102;-57
2021/08/16 00:30:47;;;;;;;7.05;4.18;;;22.70;68.00;;;;;;10344435;28;20034;-56
2021/08/16 00:35:48;;;;;;;5.00;3.40;;;22.60;67.90;;;;;;10364204;28;20041;-57
2021/08/16 00:40:49;;;;;;;6.75;3.85;;;22.70;68.00;;;;;;10343488;28;20399;-56
2021/08/16 00:45:51;;;;;;;6.20;3.50;;;22.60;68.00;;;;;;10375941;28;20026;-57
2021/08/16 00:50:52;;;;;;;7.07;3.63;;;22.60;68.10;;;;;;10335993;28;20106;-57
2021/08/16 00:55:53;;;;;;;7.25;3.88;;;22.60;68.20;;;;;;10356890;28;20065;-57
2021/08/16 01:00:58;;;;;;;4.85;3.60;;;22.60;68.20;;;;;;10335359;28;20034;-56
2021/08/16 01:05:59;;;;;;;6.20;3.67;;;22.60;68.10;;;;;;10335766;28;20037;-56
2021/08/16 01:10:59;;;;;;;8.00;3.92;;;22.60;68.10;;;;;;10344521;28;20058;-57
2021/08/16 01:16:04;;;;;;;6.30;4.30;;;22.60;68.00;;;;;;10372619;28;20026;-57
2021/08/16 01:21:08;;;;;;;5.68;3.35;;;22.60;68.00;;;;;;10336984;28;20482;-56
2021/08/16 01:26:09;;;;;;;4.55;3.33;;;22.60;68.10;;;;;;10339151;28;20068;-57
2021/08/16 01:31:10;;;;;;;5.80;3.75;;;22.60;68.10;;;;;;10376344;28;20040;-57
2021/08/16 01:36:11;;;;;;;8.48;3.28;;;22.60;68.10;;;;;;10336584;28;20105;-56
2021/08/16 01:41:12;;;;;;;6.80;4.35;;;22.60;68.10;;;;;;10334139;28;20121;-57
2021/08/16 01:46:12;;;;;;;7.47;3.88;;;22.60;68.20;;;;;;10334099;28;20041;-57
2021/08/16 01:51:13;;;;;;;7.43;3.30;;;22.60;68.20;;;;;;10343534;28;20160;-56
2021/08/16 01:56:13;;;;;;;8.00;3.90;;;22.60;68.30;;;;;;10363629;28;20112;-56
2021/08/16 02:01:14;;;;;;;7.30;4.10;;;22.60;68.10;;;;;;10338274;28;20504;-56
2021/08/16 02:06:15;;;;;;;6.13;3.60;;;22.60;68.20;;;;;;10334673;28;20030;-56
2021/08/16 02:11:17;;;;;;;5.35;3.22;;;22.50;68.20;;;;;;10343221;28;20474;-56
2021/08/16 02:16:18;;;;;;;5.22;3.33;;;22.50;68.20;;;;;;10367490;28;20041;-57
2021/08/16 02:21:19;;;;;;;6.38;3.40;;;22.50;68.30;;;;;;10333362;28;20375;-57
2021/08/16 02:26:19;;;;;;;6.07;3.22;;;22.50;68.20;;;;;;10333734;28;20030;-57
2021/08/16 02:31:23;;;;;;;7.35;3.53;;;22.50;68.10;;;;;;10333624;28;20041;-57
2021/08/16 02:36:24;;;;;;;6.53;3.30;;;22.50;68.20;;;;;;10334086;28;20407;-56
2021/08/16 02:41:25;;;;;;;5.10;3.00;;;22.50;68.30;;;;;;10344706;28;20070;-57
2021/08/16 02:46:26;;;;;;;5.45;3.13;;;22.50;68.20;;;;;;10364645;28;20423;-57
2021/08/16 02:51:27;;;;;;;5.15;3.40;;;22.50;68.30;;;;;;10333154;28;20117;-57
2021/08/16 02:56:27;;;;;;;6.70;3.10;;;22.50;68.30;;;;;;10334154;28;20030;-56
2021/08/16 03:01:28;;;;;;;5.90;3.78;;;22.50;68.30;;;;;;10332748;28;20104;-56
2021/08/16 03:06:29;;;;;;;8.13;3.72;;;22.50;68.30;;;;;;10340177;28;20493;-56
2021/08/16 03:11:29;;;;;;;6.05;3.35;;;22.50;68.30;;;;;;10371314;28;20091;-55
2021/08/16 03:16:30;;;;;;;5.43;3.65;;;22.50;68.30;;;;;;10365860;28;20034;-56
2021/08/16 03:21:31;;;;;;;7.20;3.33;;;22.50;68.30;;;;;;10371886;28;20036;-56
2021/08/16 03:26:32;;;;;;;5.43;3.80;;;22.40;68.40;;;;;;10369579;28;20117;-56
2021/08/16 03:31:32;;;;;;;6.30;3.47;;;22.50;68.40;;;;;;10368240;28;20492;-55
2021/08/16 03:36:33;;;;;;;7.20;3.65;;;22.40;68.10;;;;;;10359692;28;20038;-55
2021/08/16 03:41:34;;;;;;;7.43;3.83;;;22.40;68.20;;;;;;10339980;28;20507;-56
2021/08/16 03:46:35;;;;;;;7.22;3.75;;;22.40;68.30;;;;;;10339856;28;20041;-55
2021/08/16 03:51:36;;;;;;;5.95;3.75;;;22.40;68.40;;;;;;10339538;28;20036;-56
2021/08/16 03:56:36;;;;;;;7.40;3.85;;;22.40;68.40;;;;;;10339704;28;20070;-55
2021/08/16 04:01:37;;;;;;;7.07;3.63;;;22.40;68.30;;;;;;10338819;28;20114;-55
2021/08/16 04:06:38;;;;;;;4.78;3.28;;;22.40;68.30;;;;;;10350154;28;20081;-55
2021/08/16 04:11:39;;;;;;;5.53;3.40;;;22.40;68.30;;;;;;10376391;28;20389;-55
2021/08/16 04:16:40;;;;;;;4.45;2.83;;;22.40;68.30;;;;;;10366792;28;20065;-56
2021/08/16 04:21:40;;;;;;;8.68;3.70;;;22.40;68.40;;;;;;10338968;28;20030;-55
2021/08/16 04:26:41;;;;;;;6.65;3.10;;;22.40;68.40;;;;;;10343904;28;20045;-54
2021/08/16 04:31:42;;;;;;;6.97;3.50;;;22.40;68.50;;;;;;10357642;28;20030;-56
2021/08/16 04:36:43;;;;;;;6.20;3.50;;;22.40;68.50;;;;;;10353631;28;20109;-55
2021/08/16 04:41:43;;;;;;;6.10;3.15;;;22.40;68.50;;;;;;10377850;28;20054;-55
2021/08/16 04:46:44;;;;;;;4.50;2.97;;;22.40;68.60;;;;;;10372797;28;20074;-56
2021/08/16 04:51:45;;;;;;;4.75;2.97;;;22.40;68.20;;;;;;10350001;28;20026;-56
2021/08/16 04:56:45;;;;;;;7.07;3.45;;;22.40;68.20;;;;;;10341931;28;20501;-55
2021/08/16 05:01:48;;;;;;;5.68;3.38;;;22.30;68.20;;;;;;10359639;28;20492;-56
2021/08/16 05:06:49;;;;;;;6.82;3.45;;;22.40;68.40;;;;;;10358731;28;20533;-57
2021/08/16 05:11:50;;;;;;;6.75;3.05;;;22.30;68.30;;;;;;10351289;28;20046;-57
2021/08/16 05:16:50;;;;;;;6.82;2.83;;;22.30;68.90;;;;;;10350543;28;20057;-55
2021/08/16 05:21:51;;;;;;;9.95;3.67;;;22.40;68.80;;;;;;10348653;28;20029;-55
2021/08/16 05:26:52;;;;;;;7.65;3.17;;;22.40;69.60;;;;;;10360343;28;20105;-54
2021/08/16 05:31:53;;;;;;;10.32;3.85;;;22.40;69.20;;;;;;10342390;28;20113;-55
2021/08/16 05:36:54;;;;;;;7.72;3.20;;;22.40;69.50;;;;;;10333891;28;20109;-56
2021/08/16 05:41:55;;;;;;;9.15;3.33;;;22.50;69.50;;;;;;10335097;28;20121;-56
2021/08/16 05:46:55;;;;;;;11.65;3.72;;;22.50;70.00;;;;;;10355348;28;20169;-58
2021/08/16 05:51:56;;;;;;;11.32;3.50;;;22.50;69.80;;;;;;10352057;28;20418;-56
2021/08/16 05:56:57;;;;;;;10.82;3.65;;;22.50;70.00;;;;;;10348431;28;20058;-55
2021/08/16 06:01:58;;;;;;;9.02;3.80;;;22.50;69.90;;;;;;10357088;28;20451;-55
2021/08/16 06:06:59;;;;;;;6.63;3.53;;;22.50;69.60;;;;;;10364902;28;20124;-56
2021/08/16 06:11:59;;;;;;;9.18;3.55;;;22.40;69.60;;;;;;10371511;28;20025;-58
2021/08/16 06:17:00;;;;;;;10.40;3.88;;;22.40;69.70;;;;;;10349127;28;20058;-54
2021/08/16 06:22:01;;;;;;;11.38;4.07;;;22.40;69.70;;;;;;10347292;28;20031;-54
2021/08/16 06:27:04;;;;;;;12.00;4.05;;;22.40;69.90;;;;;;10347012;28;20026;-54
2021/08/16 06:32:05;;;;;;;11.63;4.20;;;22.40;70.00;;;;;;10353478;28;20087;-53
2021/08/16 06:37:06;;;;;;;18.40;4.22;;;22.40;70.10;;;;;;10354194;28;20128;-52
2021/08/16 06:42:09;;;;;;;17.95;4.90;;;22.40;70.30;;;;;;10371764;28;20088;-52
2021/08/16 06:47:10;;;;;;;13.57;4.65;;;22.40;70.40;;;;;;10372364;28;20033;-52
2021/08/16 06:52:11;;;;;;;15.52;4.20;;;22.40;70.60;;;;;;10373454;28;20031;-53
2021/08/16 06:57:11;;;;;;;8.63;3.60;;;22.40;70.60;;;;;;10373484;28;20524;-54
2021/08/16 07:02:12;;;;;;;8.48;3.95;;;22.40;70.90;;;;;;10372679;28;20112;-50
2021/08/16 07:07:13;;;;;;;9.80;4.30;;;22.40;70.80;;;;;;10373156;28;20080;-54
2021/08/16 07:12:13;;;;;;;8.57;3.65;;;22.40;70.80;;;;;;10372086;28;20522;-53
2021/08/16 07:17:14;;;;;;;14.35;4.03;;;22.40;70.40;;;;;;10346132;28;20061;-53
2021/08/16 07:22:16;;;;;;;16.65;5.00;;;22.40;70.90;;;;;;10369724;28;20022;-53
2021/08/16 07:27:17;;;;;;;21.20;4.35;;;22.40;70.90;;;;;;10363899;28;20041;-54
2021/08/16 07:32:17;;;;;;;24.52;5.25;;;22.40;71.30;;;;;;10363803;28;20466;-54
2021/08/16 07:37:18;;;;;;;10.80;4.05;;;22.50;71.60;;;;;;10367646;28;20448;-55
2021/08/16 07:42:23;;;;;;;13.60;4.20;;;22.40;71.50;;;;;;10370917;28;20137;-56
2021/08/16 07:47:24;;;;;;;8.18;3.58;;;22.40;71.50;;;;;;10345949;28;20034;-55
2021/08/16 07:52:25;;;;;;;12.38;4.63;;;22.40;71.60;;;;;;10347354;28;20483;-54
2021/08/16 07:57:25;;;;;;;15.25;4.20;;;22.40;71.60;;;;;;10336332;28;20148;-52
2021/08/16 08:02:40;;;;;;;12.50;4.10;;;22.50;71.60;;;;;;10331453;28;20448;-55
2021/08/16 08:07:42;;;;;;;12.85;3.75;;;22.50;71.60;;;;;;10363905;28;20041;-53
2021/08/16 08:12:45;;;;;;;12.32;4.57;;;22.50;71.70;;;;;;10375770;28;20026;-56
2021/08/16 08:17:46;;;;;;;12.82;4.50;;;22.50;71.50;;;;;;10369765;28;20037;-54
2021/08/16 08:22:47;;;;;;;10.63;3.70;;;22.50;71.60;;;;;;10338019;28;20088;-54
2021/08/16 08:27:47;;;;;;;12.63;3.67;;;22.50;72.10;;;;;;10357547;28;20041;-51
2021/08/16 08:32:56;;;;;;;21.92;4.35;;;22.50;71.60;;;;;;10364376;28;20065;-55
2021/08/16 08:37:56;;;;;;;8.93;3.97;;;22.50;71.90;;;;;;10378479;28;20143;-55
2021/08/16 08:42:57;;;;;;;10.70;3.50;;;22.50;71.30;;;;;;10358504;28;20058;-53
2021/08/16 08:47:58;;;;;;;8.57;3.40;;;22.50;71.30;;;;;;10349485;28;20032;-53
2021/08/16 08:53:02;;;;;;;11.00;3.97;;;22.50;71.20;;;;;;10337389;28;20022;-53
2021/08/16 08:58:02;;;;;;;11.05;3.50;;;22.50;71.00;;;;;;10335882;28;20045;-53
2021/08/16 09:03:05;;;;;;;7.85;3.63;;;22.40;70.90;;;;;;10337230;28;20034;-54
2021/08/16 09:08:05;;;;;;;8.98;4.07;;;22.40;70.90;;;;;;10351968;28;20031;-54
2021/08/16 09:13:06;;;;;;;10.38;3.63;;;22.40;70.70;;;;;;10358157;28;20113;-54
2021/08/16 09:18:06;;;;;;;13.95;3.60;;;22.40;70.80;;;;;;10359579;28;20112;-54
2021/08/16 09:23:14;;;;;;;10.48;4.35;;;22.40;71.10;;;;;;10369392;28;20450;-50
2021/08/16 09:28:32;;;;;;;12.95;4.70;;;22.40;71.00;;;;;;10353915;28;20041;-55
2021/08/16 09:33:33;;;;;;;7.20;3.63;;;22.40;70.70;;;;;;10334473;28;20027;-56
2021/08/16 09:38:34;;;;;;;8.85;3.83;;;22.40;70.60;;;;;;10335021;28;20037;-55
2021/08/16 09:43:35;;;;;;;9.07;4.57;;;22.40;70.80;;;;;;10333879;28;20038;-54
2021/08/16 09:48:36;;;;;;;7.97;3.20;;;22.40;70.60;;;;;;10329848;28;20058;-55
2021/08/16 09:53:37;;;;;;;4.45;2.90;;;22.40;70.60;;;;;;10330584;28;20030;-56
2021/08/16 09:58:38;;;;;;;8.25;3.65;;;22.40;70.60;;;;;;10332610;28;20034;-55
2021/08/16 10:03:40;;;;;;;8.90;3.72;;;22.40;70.40;;;;;;10371189;28;20030;-56
2021/08/16 10:08:54;;;;;;;10.13;4.07;;;22.40;70.80;;;;;;10363444;28;20041;-57
2021/08/16 10:13:59;;;;;;;7.45;3.47;;;22.40;71.00;;;;;;10374216;28;20383;-56
2021/08/16 10:19:14;;;;;;;6.03;2.95;;;22.50;71.30;;;;;;10366571;28;20038;-56
2021/08/16 10:24:20;;;;;;;9.70;3.17;;;22.50;70.50;;;;;;10373060;28;20033;-54
2021/08/16 10:29:22;;;;;;;10.85;3.33;;;22.50;70.60;;;;;;10356554;28;20080;-56
2021/08/16 10:34:39;;;;;;;7.63;3.30;;;22.50;70.70;;;;;;10359531;28;20026;-55
2021/08/16 10:39:41;;;;;;;15.30;3.38;;;22.50;70.60;;;;;;10362157;28;20058;-55
2021/08/16 10:44:50;;;;;;;7.05;3.50;;;22.50;70.60;;;;;;10333203;28;20486;-56
2021/08/16 10:50:06;;;;;;;11.95;4.18;;;22.50;69.70;;;;;;10333212;28;20061;-56
2021/08/16 10:55:25;;;;;;;9.25;4.18;;;22.50;69.10;;;;;;10344809;28;20042;-56
2021/08/16 11:00:26;;;;;;;7.95;3.70;;;22.50;69.00;;;;;;10333020;28;20039;-56
2021/08/16 11:05:33;;;;;;;21.08;5.50;;;22.50;69.00;;;;;;10332833;28;20088;-56
2021/08/16 11:10:50;;;;;;;15.15;4.93;;;22.50;69.10;;;;;;10361114;28;20416;-56
2021/08/16 11:15:50;;;;;;;8.77;4.68;;;22.50;69.30;;;;;;10373331;28;20037;-56
2021/08/16 11:21:00;;;;;;;10.50;4.10;;;22.50;69.50;;;;;;10339049;28;20072;-56
2021/08/16 11:26:01;;;;;;;24.15;5.38;;;22.50;69.50;;;;;;10332550;28;20041;-56
2021/08/16 11:31:06;;;;;;;10.82;4.95;;;22.50;69.70;;;;;;10332559;28;20539;-56
2021/08/16 11:36:10;;;;;;;11.27;5.00;;;22.50;69.60;;;;;;10335015;28;20109;-56
2021/08/16 11:41:15;;;;;;;21.90;4.95;;;22.50;69.70;;;;;;10331919;28;20084;-55
2021/08/16 11:46:17;;;;;;;9.48;3.63;;;22.50;69.90;;;;;;10335314;28;20089;-56
2021/08/16 11:51:19;;;;;;;13.68;4.43;;;22.50;69.80;;;;;;10340011;28;20029;-56
2021/08/16 11:56:20;;;;;;;6.32;3.65;;;22.50;70.00;;;;;;10339503;28;20042;-56
2021/08/16 12:01:21;;;;;;;8.35;4.38;;;22.50;70.10;;;;;;10343517;28;20072;-56
2021/08/16 12:06:24;;;;;;;7.75;4.25;;;22.50;70.10;;;;;;10378523;28;20077;-56
2021/08/16 12:11:25;;;;;;;11.80;4.35;;;22.50;70.20;;;;;;10377494;28;20037;-56
2021/08/16 12:16:32;;;;;;;9.05;4.45;;;22.50;70.30;;;;;;10351263;28;20368;-56
2021/08/16 12:21:33;;;;;;;7.55;3.00;;;22.50;70.40;;;;;;10336581;28;20081;-56
2021/08/16 12:26:40;;;;;;;7.07;4.25;;;22.40;70.30;;;;;;10337707;28;20027;-56
2021/08/16 12:31:41;;;;;;;7.75;3.50;;;22.40;70.20;;;;;;10338617;28;20022;-56
2021/08/16 12:36:57;;;;;;;9.13;4.22;;;22.40;70.50;;;;;;10368044;28;20117;-56
2021/08/16 12:42:09;;;;;;;8.50;4.32;;;22.40;70.60;;;;;;10369576;28;20394;-56
2021/08/16 12:47:10;;;;;;;5.63;4.05;;;22.40;70.80;;;;;;10361737;28;20038;-56
2021/08/16 12:52:11;;;;;;;7.57;4.00;;;22.40;70.80;;;;;;10348771;28;20030;-56
2021/08/16 12:57:12;;;;;;;5.30;3.72;;;22.50;71.20;;;;;;10348942;28;20565;-55
2021/08/16 13:02:20;;;;;;;6.32;3.75;;;22.40;71.20;;;;;;10339222;28;20489;-54
2021/08/16 13:07:21;;;;;;;7.70;4.47;;;22.40;71.10;;;;;;10360916;28;20137;-56
2021/08/16 13:12:22;;;;;;;6.38;3.80;;;22.40;71.60;;;;;;10348897;28;20453;-56
2021/08/16 13:17:23;;;;;;;8.70;3.92;;;22.40;71.50;;;;;;10349656;28;20034;-56
2021/08/16 13:22:24;;;;;;;9.63;3.88;;;22.40;71.60;;;;;;10334809;28;20027;-55
2021/08/16 13:27:25;;;;;;;7.22;3.42;;;22.40;71.90;;;;;;10336025;28;20038;-55
2021/08/16 13:32:25;;;;;;;17.75;4.88;;;22.40;71.70;;;;;;10335997;28;20486;-55
2021/08/16 13:37:26;;;;;;;11.38;4.50;;;22.40;71.60;;;;;;10333596;28;20117;-53
2021/08/16 13:42:27;;;;;;;12.45;4.82;;;22.40;71.50;;;;;;10334968;28;20181;-54
2021/08/16 13:47:27;;;;;;;10.45;3.83;;;22.40;71.70;;;;;;10334646;28;20034;-55
2021/08/16 13:52:30;;;;;;;8.45;4.13;;;22.40;71.50;;;;;;10334674;28;20030;-54
2021/08/16 13:57:31;;;;;;;11.27;4.28;;;22.50;71.40;;;;;;10334853;28;20113;-55
2021/08/16 14:02:32;;;;;;;13.48;4.05;;;22.40;71.20;;;;;;10334330;28;20113;-54
2021/08/16 14:07:33;;;;;;;15.23;4.10;;;22.40;71.10;;;;;;10332608;28;20026;-53
2021/08/16 14:12:40;;;;;;;10.07;3.88;;;22.40;71.30;;;;;;10332307;28;20105;-55
2021/08/16 14:17:41;;;;;;;15.52;4.32;;;22.40;71.40;;;;;;10335977;28;20030;-55
2021/08/16 14:22:42;;;;;;;10.80;4.13;;;22.50;71.50;;;;;;10333647;28;20026;-54
2021/08/16 14:27:42;;;;;;;13.85;4.50;;;22.50;71.40;;;;;;10333446;28;20033;-53
2021/08/16 14:32:43;;;;;;;15.38;5.22;;;22.40;71.00;;;;;;10333590;28;20038;-54
2021/08/16 14:37:44;;;;;;;11.40;3.83;;;22.50;71.40;;;;;;10333117;28;20117;-53
2021/08/16 14:42:45;;;;;;;10.20;4.30;;;22.40;71.00;;;;;;10332736;28;20054;-53
2021/08/16 14:47:45;;;;;;;7.57;3.60;;;22.50;70.80;;;;;;10332897;28;20026;-53
2021/08/16 14:52:47;;;;;;;12.23;4.53;;;22.50;70.80;;;;;;10332595;28;20398;-54
2021/08/16 14:57:48;;;;;;;12.10;4.75;;;22.50;70.80;;;;;;10332426;28;20034;-53
2021/08/16 15:02:48;;;;;;;8.98;4.45;;;22.50;70.60;;;;;;10332503;28;20035;-54
2021/08/16 15:07:49;;;;;;;10.80;4.15;;;22.50;70.50;;;;;;10331876;28;20030;-53
2021/08/16 15:12:50;;;;;;;5.78;3.15;;;22.50;70.40;;;;;;10332084;28;20382;-52
2021/08/16 15:17:51;;;;;;;6.55;4.22;;;22.40;69.60;;;;;;10334069;28;20082;-50
2021/08/16 15:22:52;;;;;;;6.65;3.35;;;22.40;69.40;;;;;;10346336;28;20066;-53
2021/08/16 15:27:53;;;;;;;20.02;4.63;;;22.40;68.60;;;;;;10353797;28;20061;-52
2021/08/16 15:32:56;;;;;;;9.38;3.83;;;22.40;68.30;;;;;;10360557;28;20025;-54
2021/08/16 15:37:57;;;;;;;9.90;3.33;;;22.40;68.30;;;;;;10358418;28;20105;-54
2021/08/16 15:42:57;;;;;;;11.43;3.58;;;22.40;67.70;;;;;;10364246;28;20463;-55
2021/08/16 15:47:58;;;;;;;9.13;4.03;;;22.40;67.60;;;;;;10353579;28;20506;-55
2021/08/16 15:52:59;;;;;;;10.63;4.20;;;22.40;66.50;;;;;;10364619;28;20080;-55
2021/08/16 15:57:59;;;;;;;10.15;4.40;;;22.40;65.60;;;;;;10373053;28;20356;-54
2021/08/16 16:03:00;;;;;;;8.82;3.60;;;22.30;64.90;;;;;;10347239;28;20121;-55
2021/08/16 16:08:01;;;;;;;10.18;4.28;;;22.40;64.40;;;;;;10354183;28;20520;-53
2021/08/16 16:13:02;;;;;;;10.40;4.93;;;22.40;65.80;;;;;;10340146;28;20106;-56
2021/08/16 16:18:02;;;;;;;13.32;4.55;;;22.40;66.80;;;;;;10360063;28;20089;-55
2021/08/16 16:23:05;;;;;;;11.43;5.55;;;22.50;66.80;;;;;;10337922;28;20113;-55
2021/08/16 16:28:06;;;;;;;11.25;4.70;;;22.50;65.80;;;;;;10337943;28;20034;-55
2021/08/16 16:33:06;;;;;;;9.32;4.68;;;22.50;65.80;;;;;;10364305;28;20022;-49
2021/08/16 16:38:07;;;;;;;12.10;4.15;;;22.40;65.50;;;;;;10360779;28;20116;-53
2021/08/16 16:43:08;;;;;;;17.98;4.63;;;22.40;65.50;;;;;;10378402;28;20069;-60
2021/08/16 16:48:08;;;;;;;8.98;3.55;;;22.40;65.40;;;;;;10357045;28;20442;-62
2021/08/16 16:53:09;;;;;;;7.35;3.60;;;22.30;65.10;;;;;;10376747;28;20018;-62
2021/08/16 16:58:10;;;;;;;9.50;3.72;;;22.30;65.10;;;;;;10375298;28;20553;-61
2021/08/16 17:03:11;;;;;;;7.03;3.30;;;22.30;64.80;;;;;;10341370;28;20041;-61
2021/08/16 17:08:12;;;;;;;8.95;3.92;;;22.30;65.50;;;;;;10345122;28;20501;-60
2021/08/16 17:13:14;;;;;;;7.32;3.55;;;22.30;65.70;;;;;;10374244;28;20108;-60
2021/08/16 17:18:15;;;;;;;9.25;3.70;;;22.30;64.80;;;;;;10339307;28;20113;-62
2021/08/16 17:23:16;;;;;;;14.73;3.55;;;22.30;64.40;;;;;;10355485;28;20030;-63
2021/08/16 17:28:18;;;;;;;12.55;3.72;;;22.30;65.00;;;;;;10337959;28;20092;-63
2021/08/16 17:33:19;;;;;;;14.40;4.35;;;22.20;65.30;;;;;;10335464;28;20080;-62
2021/08/16 17:38:20;;;;;;;7.85;3.13;;;22.20;64.80;;;;;;10350056;28;20034;-62
2021/08/16 17:43:20;;;;;;;11.75;4.55;;;22.30;65.30;;;;;;10334049;28;20138;-62
2021/08/16 17:48:21;;;;;;;10.23;3.97;;;22.20;65.10;;;;;;10352250;28;20109;-62
2021/08/16 17:53:22;;;;;;;10.20;3.95;;;22.20;65.00;;;;;;10344528;28;20129;-61
2021/08/16 17:58:23;;;;;;;7.10;3.10;;;22.20;65.00;;;;;;10340535;28;20105;-59
2021/08/16 18:03:25;;;;;;;7.10;2.95;;;22.20;65.00;;;;;;10345151;28;20088;-59
2021/08/16 18:08:26;;;;;;;6.55;3.13;;;22.20;65.10;;;;;;10352883;28;20381;-60
2021/08/16 18:13:28;;;;;;;7.30;3.17;;;22.20;65.10;;;;;;10352104;28;20140;-59
2021/08/16 18:18:29;;;;;;;8.15;3.00;;;22.20;65.10;;;;;;10352964;28;20036;-59
2021/08/16 18:23:30;;;;;;;9.68;3.00;;;22.20;65.00;;;;;;10352679;28;20038;-59
2021/08/16 18:28:31;;;;;;;10.20;2.75;;;22.20;65.10;;;;;;10343376;28;20030;-59
2021/08/16 18:33:33;;;;;;;8.43;3.17;;;22.20;65.20;;;;;;10352330;28;20026;-60
2021/08/16 18:38:34;;;;;;;12.40;3.55;;;22.20;65.30;;;;;;10361994;28;20114;-59
2021/08/16 18:43:34;;;;;;;13.63;3.70;;;22.20;65.40;;;;;;10339781;28;20120;-59
2021/08/16 18:48:35;;;;;;;10.07;2.97;;;22.20;65.50;;;;;;10347278;28;20041;-59
2021/08/16 18:53:36;;;;;;;7.72;2.85;;;22.20;65.40;;;;;;10350674;28;20112;-59
2021/08/16 18:58:36;;;;;;;7.43;2.50;;;22.20;65.60;;;;;;10352218;28;20475;-59
2021/08/16 19:03:38;;;;;;;6.13;2.83;;;22.20;65.50;;;;;;10352500;28;20732;-59
2021/08/16 19:08:39;;;;;;;9.40;2.72;;;22.20;65.40;;;;;;10343278;28;20395;-59
2021/08/16 19:13:39;;;;;;;8.20;3.03;;;22.20;65.40;;;;;;10338944;28;20101;-59
2021/08/16 19:18:40;;;;;;;5.45;3.05;;;22.20;65.40;;;;;;10345696;28;20184;-59
2021/08/16 19:23:41;;;;;;;6.30;3.00;;;22.20;65.50;;;;;;10313999;28;20038;-58
2021/08/16 19:28:44;;;;;;;8.98;3.05;;;22.20;65.80;;;;;;10331913;28;20038;-59
2021/08/16 19:33:46;;;;;;;7.38;2.60;;;22.20;65.60;;;;;;10339470;28;20360;-58
2021/08/16 19:38:48;;;;;;;6.32;2.85;;;22.10;65.60;;;;;;10340837;28;20112;-58
2021/08/16 19:43:49;;;;;;;8.20;3.40;;;22.10;65.70;;;;;;10342241;28;20037;-58
2021/08/16 19:48:49;;;;;;;9.43;3.03;;;22.10;65.80;;;;;;10362919;28;20504;-58
2021/08/16 19:53:52;;;;;;;6.30;2.83;;;22.10;65.70;;;;;;10367476;28;20049;-58
2021/08/16 19:58:54;;;;;;;7.72;3.45;;;22.10;65.50;;;;;;10339255;28;20113;-57
2021/08/16 20:03:59;;;;;;;6.95;2.72;;;22.10;65.50;;;;;;10363243;28;20433;-58
2021/08/16 20:08:59;;;;;;;4.35;2.50;;;22.10;65.60;;;;;;10374230;28;20390;-58
2021/08/16 20:14:00;;;;;;;6.38;2.95;;;22.10;65.60;;;;;;10366353;28;20022;-59
2021/08/16 20:19:01;;;;;;;5.68;2.70;;;22.00;65.50;;;;;;10364182;28;20066;-59
2021/08/16 20:24:01;;;;;;;5.93;2.47;;;22.10;65.50;;;;;;10378456;28;20069;-59
2021/08/16 20:29:04;;;;;;;4.72;2.50;;;22.00;65.60;;;;;;10355701;28;20026;-59
2021/08/16 20:34:06;;;;;;;7.38;2.53;;;22.00;65.50;;;;;;10336882;28;20038;-58
2021/08/16 20:39:07;;;;;;;6.72;2.63;;;22.00;65.50;;;;;;10366672;28;20049;-58
2021/08/16 20:44:08;;;;;;;6.63;2.40;;;22.00;65.50;;;;;;10366423;28;20109;-58
2021/08/16 20:49:08;;;;;;;6.88;2.97;;;22.00;65.30;;;;;;10335307;28;20027;-59
2021/08/16 20:54:09;;;;;;;7.82;2.45;;;22.00;65.50;;;;;;10336469;28;20132;-58
2021/08/16 20:59:10;;;;;;;4.72;2.63;;;22.00;66.10;;;;;;10344801;28;20567;-58
2021/08/16 21:04:10;;;;;;;6.70;2.30;;;21.90;65.50;;;;;;10346317;28;20022;-58
2021/08/16 21:09:11;;;;;;;4.55;2.15;;;21.90;65.40;;;;;;10334489;28;20057;-58
2021/08/16 21:14:12;;;;;;;5.28;2.67;;;21.90;65.40;;;;;;10335916;28;20116;-58
2021/08/16 21:19:12;;;;;;;5.50;2.30;;;22.00;65.70;;;;;;10335938;28;20124;-58
2021/08/16 21:24:13;;;;;;;4.15;2.00;;;21.90;65.50;;;;;;10346967;28;20139;-59
2021/08/16 21:29:14;;;;;;;4.20;2.50;;;21.90;65.60;;;;;;10335049;28;20387;-58
2021/08/16 21:34:15;;;;;;;6.32;2.83;;;21.90;65.50;;;;;;10345644;28;20072;-59
2021/08/16 21:39:15;;;;;;;5.22;2.25;;;21.90;65.60;;;;;;10367595;28;20514;-58
2021/08/16 21:44:16;;;;;;;5.05;2.78;;;21.90;65.50;;;;;;10358429;28;20558;-58
2021/08/16 21:49:17;;;;;;;4.75;2.47;;;21.90;65.40;;;;;;10333220;28;20077;-58
2021/08/16 21:54:18;;;;;;;3.13;1.88;;;21.90;65.50;;;;;;10316907;28;20110;-59
2021/08/16 21:59:18;;;;;;;5.82;2.63;;;21.90;65.50;;;;;;10316339;28;20033;-58
2021/08/16 22:04:19;;;;;;;7.43;2.55;;;21.90;65.60;;;;;;10358447;28;20092;-59
2021/08/16 22:09:20;;;;;;;4.68;2.22;;;21.90;65.60;;;;;;10364133;28;20433;-59
2021/08/16 22:14:21;;;;;;;6.30;2.75;;;21.90;65.50;;;;;;10344218;28;20386;-58
2021/08/16 22:19:21;;;;;;;4.53;2.22;;;21.80;65.60;;;;;;10352556;28;20046;-60
2021/08/16 22:24:22;;;;;;;6.00;2.40;;;21.90;65.50;;;;;;10350571;28;20095;-59
2021/08/16 22:29:23;;;;;;;6.75;2.35;;;21.80;65.50;;;;;;10368211;28;20034;-59
2021/08/16 22:34:23;;;;;;;5.13;2.30;;;21.80;65.50;;;;;;10357714;28;20058;-59
2021/08/16 22:39:24;;;;;;;7.07;2.35;;;21.80;65.40;;;;;;10344552;28;20058;-58
2021/08/16 22:44:25;;;;;;;3.90;1.90;;;21.80;65.40;;;;;;10332931;28;20072;-58
2021/08/16 22:49:27;;;;;;;6.13;2.45;;;21.80;65.40;;;;;;10332661;28;20121;-58
2021/08/16 22:54:28;;;;;;;5.78;2.20;;;21.80;65.40;;;;;;10333417;28;20027;-59
2021/08/16 22:59:29;;;;;;;5.22;2.47;;;21.80;65.40;;;;;;10331099;28;20529;-58
2021/08/16 23:04:29;;;;;;;5.72;2.00;;;21.80;65.20;;;;;;10361312;28;20049;-58
2021/08/16 23:09:31;;;;;;;6.32;2.70;;;21.70;65.30;;;;;;10363990;28;20478;-59
2021/08/16 23:14:34;;;;;;;4.40;2.35;;;21.70;65.30;;;;;;10354087;28;20077;-59
2021/08/16 23:19:35;;;;;;;4.75;2.28;;;21.70;65.20;;;;;;10354007;28;20464;-58
2021/08/16 23:24:35;;;;;;;7.35;2.28;;;21.80;65.20;;;;;;10333159;28;20121;-59
2021/08/16 23:29:36;;;;;;;3.17;1.70;;;21.70;65.10;;;;;;10331878;28;20078;-59
2021/08/16 23:34:37;;;;;;;4.05;2.40;;;21.70;65.10;;;;;;10330376;28;20109;-59
2021/08/16 23:39:37;;;;;;;4.85;2.60;;;21.70;65.10;;;;;;10322528;28;20487;-58
2021/08/16 23:44:38;;;;;;;5.30;2.75;;;21.70;65.10;;;;;;10371826;28;20052;-58
2021/08/16 23:49:39;;;;;;;4.45;2.03;;;21.70;65.10;;;;;;10377649;28;20038;-58
2021/08/16 23:54:40;;;;;;;6.10;2.47;;;21.70;65.10;;;;;;10379885;28;20135;-59
2021/08/16 23:59:40;;;;;;;4.28;2.00;;;21.70;65.10;;;;;;10360975;28;20041;-58
